Time;durP1;ratioP1;P1;durP2;ratioP2;P2;SDS_P1;SDS_P2;PMS_P1;PMS_P2;Temp;Humidity;BMP_temperature;BMP_pressure;BME280_temperature;BME280_humidity;BME280_pressure;Samples;Min_cycle;Max_cycle;Signal;HPM_P1;HPM_P2
2021/07/27 00:00:12;;;;;;;29.05;12.02;;;17.10;99.90;;;;;;6304505;22;20003;-54
2021/07/27 00:02:38;;;;;;;22.90;9.77;;;17.00;99.90;;;;;;6304533;22;20008;-60
2021/07/27 00:05:04;;;;;;;19.55;11.02;;;17.00;99.90;;;;;;6304423;22;20003;-56
2021/07/27 00:07:29;;;;;;;23.67;10.98;;;17.00;99.90;;;;;;6304666;22;20430;-54
2021/07/27 00:09:55;;;;;;;19.92;9.98;;;16.90;99.90;;;;;;6304796;22;19996;-54
2021/07/27 00:12:20;;;;;;;18.55;10.27;;;16.90;99.90;;;;;;6304162;22;20141;-60
2021/07/27 00:14:46;;;;;;;22.20;10.90;;;16.90;99.90;;;;;;6305186;22;19999;-58
2021/07/27 00:17:11;;;;;;;17.25;10.70;;;16.90;99.90;;;;;;6304370;22;20078;-57
2021/07/27 00:19:37;;;;;;;20.75;10.18;;;16.90;99.90;;;;;;6305228;22;19999;-59
2021/07/27 00:22:02;;;;;;;18.15;10.10;;;16.90;99.90;;;;;;6304240;22;19999;-59
2021/07/27 00:24:28;;;;;;;19.77;10.10;;;16.90;99.90;;;;;;6304832;22;20003;-55
2021/07/27 00:26:55;;;;;;;24.17;11.10;;;16.90;99.90;;;;;;6304454;22;20006;-58
2021/07/27 00:29:22;;;;;;;22.77;10.55;;;16.90;99.90;;;;;;6304561;22;19999;-60
2021/07/27 00:31:47;;;;;;;23.42;11.60;;;16.90;99.90;;;;;;6304670;22;20007;-57
2021/07/27 00:34:13;;;;;;;23.70;10.52;;;16.90;99.90;;;;;;6304207;22;20383;-56
2021/07/27 00:36:38;;;;;;;20.90;10.60;;;16.90;99.90;;;;;;6304233;22;20064;-57
2021/07/27 00:39:04;;;;;;;20.30;11.15;;;16.90;99.90;;;;;;6304217;22;20385;-56
2021/07/27 00:41:29;;;;;;;16.75;11.50;;;16.90;99.90;;;;;;6304605;22;20010;-55
2021/07/27 00:43:55;;;;;;;19.77;10.48;;;16.90;99.90;;;;;;6304432;22;20019;-57
2021/07/27 00:46:20;;;;;;;21.33;11.82;;;17.00;99.90;;;;;;6303657;22;20055;-56
2021/07/27 00:48:46;;;;;;;22.23;11.60;;;16.90;99.90;;;;;;6304373;22;19999;-57
2021/07/27 00:51:13;;;;;;;15.75;10.10;;;16.90;99.90;;;;;;6303908;22;20003;-57
2021/07/27 00:53:39;;;;;;;19.08;11.43;;;16.90;99.90;;;;;;6304195;22;20399;-61
2021/07/27 00:56:06;;;;;;;23.83;11.18;;;16.90;99.90;;;;;;6304180;22;20006;-56
2021/07/27 00:58:31;;;;;;;21.92;11.82;;;16.90;99.90;;;;;;6304162;22;20522;-56
2021/07/27 01:00:57;;;;;;;20.08;11.32;;;16.90;99.90;;;;;;6304301;22;20027;-60
2021/07/27 01:03:23;;;;;;;25.02;12.05;;;16.90;99.90;;;;;;6303745;22;19999;-60
2021/07/27 01:05:50;;;;;;;23.42;11.45;;;16.80;99.90;;;;;;6304345;22;20379;-58
2021/07/27 01:08:15;;;;;;;22.05;11.73;;;16.80;99.90;;;;;;6303826;22;20042;-58
2021/07/27 01:10:41;;;;;;;25.27;11.05;;;16.70;99.90;;;;;;6304010;22;20004;-56
2021/07/27 01:13:08;;;;;;;22.90;11.73;;;16.70;99.90;;;;;;6303504;22;19996;-59
2021/07/27 01:15:33;;;;;;;23.90;10.00;;;16.70;99.90;;;;;;6303792;22;19999;-58
2021/07/27 01:18:08;;;;;;;22.20;10.38;;;16.60;99.90;;;;;;6304459;22;20490;-57
2021/07/27 01:20:49;;;;;;;24.38;11.05;;;16.60;99.90;;;;;;6304873;22;19999;-59
2021/07/27 01:40:12;;;;;;;29.48;11.75;;;16.70;99.90;;;;;;6180466;23;20063;-57
2021/07/27 01:42:41;;;;;;;22.70;12.20;;;16.60;99.90;;;;;;6279934;22;20061;-58
2021/07/27 01:45:12;;;;;;;24.30;12.80;;;16.60;99.90;;;;;;6303873;22;20003;-58
2021/07/27 01:47:38;;;;;;;19.13;12.30;;;16.60;99.90;;;;;;6303179;22;20101;-60
2021/07/27 01:50:04;;;;;;;24.27;14.25;;;16.60;99.90;;;;;;6303898;22;20010;-57
2021/07/27 01:52:29;;;;;;;29.52;12.43;;;16.60;99.90;;;;;;6303553;22;20003;-58
2021/07/27 01:54:56;;;;;;;28.17;12.45;;;16.60;99.90;;;;;;6303690;22;20060;-57
2021/07/27 01:57:25;;;;;;;22.70;12.40;;;16.50;99.90;;;;;;6303080;22;19996;-60
2021/07/27 01:59:57;;;;;;;28.58;11.25;;;16.50;99.90;;;;;;6303454;22;20010;-56
2021/07/27 02:02:23;;;;;;;31.83;11.57;;;16.50;99.90;;;;;;6303273;22;20006;-57
2021/07/27 02:04:48;;;;;;;21.33;11.70;;;16.50;99.90;;;;;;6303007;22;20000;-59
2021/07/27 02:07:14;;;;;;;28.17;12.45;;;16.50;99.90;;;;;;6303040;22;19999;-57
2021/07/27 02:09:42;;;;;;;23.92;11.90;;;16.50;99.90;;;;;;6302806;22;19999;-56
2021/07/27 02:12:13;;;;;;;25.38;11.77;;;16.50;99.90;;;;;;6303769;22;20057;-55
2021/07/27 02:17:22;;;;;;;24.10;13.15;;;16.50;99.90;;;;;;6304000;22;20342;-58
2021/07/27 02:19:48;;;;;;;28.70;13.07;;;16.40;99.90;;;;;;6303742;22;20027;-53
2021/07/27 02:22:13;;;;;;;31.52;12.23;;;16.40;99.90;;;;;;6302447;22;20342;-59
2021/07/27 02:24:39;;;;;;;31.83;12.25;;;16.40;99.90;;;;;;6302965;22;20050;-59
2021/07/27 02:27:05;;;;;;;30.27;11.48;;;16.40;99.90;;;;;;6302094;22;20320;-60
2021/07/27 02:29:30;;;;;;;26.45;11.32;;;16.30;99.90;;;;;;6302962;22;20074;-55
2021/07/27 02:31:56;;;;;;;33.60;11.43;;;16.30;99.90;;;;;;6303391;22;19999;-57
2021/07/27 02:34:22;;;;;;;19.73;9.93;;;16.30;99.90;;;;;;6303584;22;20078;-58
2021/07/27 02:36:47;;;;;;;20.55;11.00;;;16.30;99.90;;;;;;6303267;22;20022;-60
2021/07/27 02:39:13;;;;;;;22.63;10.95;;;16.30;99.90;;;;;;6303555;22;20060;-57
2021/07/27 02:41:38;;;;;;;19.85;10.50;;;16.30;99.90;;;;;;6303088;22;20003;-58
2021/07/27 02:44:04;;;;;;;24.52;11.60;;;16.30;99.90;;;;;;6304248;22;20384;-61
2021/07/27 02:46:30;;;;;;;28.30;11.70;;;16.30;99.90;;;;;;6302422;22;20024;-60
2021/07/27 02:48:55;;;;;;;21.63;11.52;;;16.30;99.90;;;;;;6303179;22;20008;-56
2021/07/27 02:51:21;;;;;;;22.63;11.35;;;16.30;99.90;;;;;;6302852;22;20049;-58
2021/07/27 02:53:46;;;;;;;22.98;12.18;;;16.30;99.90;;;;;;6302791;22;20007;-60
2021/07/27 02:56:13;;;;;;;22.10;12.45;;;16.30;99.90;;;;;;6302838;22;20000;-56
2021/07/27 02:58:39;;;;;;;23.50;13.07;;;16.30;99.90;;;;;;6303444;22;20011;-56
2021/07/27 03:01:05;;;;;;;24.92;13.43;;;16.30;99.90;;;;;;6302901;22;20003;-60
2021/07/27 03:03:30;;;;;;;23.52;13.38;;;16.30;99.90;;;;;;6302648;22;20057;-59
2021/07/27 03:06:00;;;;;;;29.45;13.38;;;16.30;99.90;;;;;;6301775;22;20335;-58
2021/07/27 03:08:45;;;;;;;33.28;12.07;;;16.20;99.90;;;;;;6303219;22;20011;-54
2021/07/27 03:11:11;;;;;;;;;;;16.20;99.90;;;;;;6303289;22;20004;-57
2021/07/27 03:13:36;;;;;;;24.27;12.02;;;16.10;99.90;;;;;;6301802;22;19982;-58
2021/07/27 03:16:02;;;;;;;20.10;12.35;;;16.10;99.90;;;;;;6301892;22;19999;-58
2021/07/27 03:18:27;;;;;;;19.83;11.43;;;16.10;99.90;;;;;;6304136;22;20007;-59
2021/07/27 03:20:53;;;;;;;23.00;10.98;;;16.00;99.90;;;;;;6305054;22;20060;-54
2021/07/27 03:23:26;;;;;;;21.08;10.48;;;16.10;99.90;;;;;;6304169;22;20082;-56
2021/07/27 03:25:52;;;;;;;19.13;10.83;;;16.00;99.90;;;;;;6303872;22;19999;-59
2021/07/27 03:28:18;;;;;;;19.15;11.35;;;16.00;99.90;;;;;;6304849;22;20007;-58
2021/07/27 03:30:43;;;;;;;26.63;11.70;;;16.00;99.90;;;;;;6304976;22;20018;-53
2021/07/27 03:33:09;;;;;;;18.70;11.77;;;15.90;99.90;;;;;;6304779;22;20049;-58
2021/07/27 03:35:34;;;;;;;27.95;11.85;;;15.90;99.90;;;;;;6304125;22;20003;-61
2021/07/27 03:38:04;;;;;;;22.98;11.68;;;15.90;99.90;;;;;;6303731;22;20086;-58
2021/07/27 03:40:29;;;;;;;25.92;12.02;;;15.90;99.90;;;;;;6303330;22;20003;-57
2021/07/27 03:42:55;;;;;;;23.77;12.10;;;15.90;99.90;;;;;;6304396;22;20107;-59
2021/07/27 03:45:20;;;;;;;21.98;11.80;;;15.90;99.90;;;;;;6304401;22;20133;-57
2021/07/27 03:47:46;;;;;;;22.63;11.75;;;15.80;99.90;;;;;;6304411;22;20003;-53
2021/07/27 03:50:11;;;;;;;28.55;12.40;;;15.80;99.90;;;;;;6304780;22;20003;-56
2021/07/27 03:52:37;;;;;;;24.20;12.32;;;15.80;99.90;;;;;;6304709;22;20004;-54
2021/07/27 03:55:03;;;;;;;19.95;12.70;;;15.80;99.90;;;;;;6304002;22;20066;-59
2021/07/27 03:57:29;;;;;;;24.35;13.10;;;15.80;99.90;;;;;;6304478;22;19999;-56
2021/07/27 03:59:55;;;;;;;19.02;12.07;;;15.80;99.90;;;;;;6304222;22;20138;-56
2021/07/27 04:02:20;;;;;;;23.42;12.02;;;15.80;99.90;;;;;;6303568;22;20081;-59
2021/07/27 04:04:46;;;;;;;27.35;12.80;;;15.80;99.90;;;;;;6304156;22;20043;-61
2021/07/27 04:07:11;;;;;;;23.30;12.30;;;15.70;99.90;;;;;;6303486;22;20034;-55
2021/07/27 04:09:38;;;;;;;26.02;12.30;;;15.70;99.90;;;;;;6304995;22;20012;-56
2021/07/27 04:12:04;;;;;;;31.35;12.93;;;15.70;99.90;;;;;;6303895;22;20010;-55
2021/07/27 04:14:29;;;;;;;20.50;12.18;;;15.70;99.90;;;;;;6304608;22;20027;-53
2021/07/27 04:16:56;;;;;;;20.92;11.70;;;15.80;99.90;;;;;;6304108;22;20003;-56
2021/07/27 04:19:21;;;;;;;26.13;11.98;;;15.80;99.90;;;;;;6304746;22;19999;-53
2021/07/27 04:21:48;;;;;;;22.90;10.98;;;15.80;99.90;;;;;;6304098;22;19999;-57
2021/07/27 04:24:13;;;;;;;27.95;11.52;;;15.80;99.90;;;;;;6304048;22;19999;-60
2021/07/27 04:26:39;;;;;;;19.35;11.40;;;15.90;99.90;;;;;;6304103;22;20007;-56
2021/07/27 04:29:04;;;;;;;21.75;10.93;;;15.90;99.90;;;;;;6303293;22;20006;-55
2021/07/27 04:31:30;;;;;;;18.25;11.10;;;16.00;99.90;;;;;;6302755;22;20007;-56
2021/07/27 04:33:55;;;;;;;17.85;10.75;;;16.00;99.90;;;;;;6304941;22;20074;-58
2021/07/27 04:36:21;;;;;;;23.05;10.70;;;16.10;99.90;;;;;;6303535;22;20009;-58
2021/07/27 04:38:47;;;;;;;17.67;10.18;;;16.10;99.90;;;;;;6304746;22;20353;-58
2021/07/27 04:41:12;;;;;;;20.35;10.43;;;16.10;99.90;;;;;;6303102;22;20007;-54
2021/07/27 04:43:39;;;;;;;28.80;11.93;;;16.20;99.90;;;;;;6305803;22;20015;-65
2021/07/27 04:46:06;;;;;;;17.23;10.70;;;16.30;99.90;;;;;;6301072;22;20304;-62
2021/07/27 04:48:32;;;;;;;19.20;9.70;;;16.30;99.90;;;;;;6304190;22;20496;-65
2021/07/27 04:50:58;;;;;;;16.50;10.77;;;16.40;99.90;;;;;;6304016;22;19995;-63
2021/07/27 04:53:24;;;;;;;20.55;10.85;;;16.50;99.90;;;;;;6303915;22;19999;-62
2021/07/27 04:55:51;;;;;;;15.35;10.13;;;16.50;99.90;;;;;;6303873;22;20049;-64
2021/07/27 04:58:16;;;;;;;18.50;9.50;;;16.60;99.90;;;;;;6304223;22;19999;-62
2021/07/27 05:00:42;;;;;;;19.77;9.88;;;16.70;99.90;;;;;;6304273;22;20010;-62
2021/07/27 05:03:08;;;;;;;14.27;9.57;;;16.70;99.90;;;;;;6304625;22;20004;-64
2021/07/27 05:05:34;;;;;;;14.52;10.10;;;16.70;99.90;;;;;;6302786;22;20014;-64
2021/07/27 05:08:00;;;;;;;19.65;11.20;;;16.80;99.90;;;;;;6303179;22;20007;-64
2021/07/27 05:10:25;;;;;;;13.90;10.23;;;16.80;99.90;;;;;;6303259;22;20381;-64
2021/07/27 05:12:51;;;;;;;25.80;9.90;;;16.80;99.90;;;;;;6303451;22;19999;-64
2021/07/27 05:15:17;;;;;;;16.40;10.20;;;16.90;99.90;;;;;;6303845;22;20523;-64
2021/07/27 05:17:44;;;;;;;16.50;9.85;;;16.90;99.90;;;;;;6305588;22;20003;-63
2021/07/27 05:20:10;;;;;;;22.35;12.35;;;16.80;99.90;;;;;;6305385;22;20003;-62
2021/07/27 05:22:35;;;;;;;17.95;11.13;;;16.90;99.90;;;;;;6305707;22;20003;-65
2021/07/27 05:25:02;;;;;;;16.65;11.13;;;16.80;99.90;;;;;;6305447;22;20078;-64
2021/07/27 05:27:28;;;;;;;17.73;11.63;;;16.80;99.90;;;;;;6305158;22;20011;-62
2021/07/27 05:29:55;;;;;;;18.05;10.68;;;16.80;99.90;;;;;;6302763;22;20359;-64
2021/07/27 05:32:24;;;;;;;17.85;11.98;;;16.90;99.90;;;;;;6302481;22;20003;-64
2021/07/27 05:34:50;;;;;;;20.92;12.75;;;16.90;99.90;;;;;;6305691;22;19996;-64
2021/07/27 05:37:16;;;;;;;15.40;10.90;;;17.00;99.90;;;;;;6305478;22;20052;-64
2021/07/27 05:39:42;;;;;;;21.70;11.73;;;17.00;99.90;;;;;;6304978;22;20006;-64
2021/07/27 05:42:07;;;;;;;18.35;11.63;;;17.00;99.90;;;;;;6305012;22;19996;-64
2021/07/27 05:44:33;;;;;;;20.40;12.68;;;17.10;99.90;;;;;;6304583;22;20416;-63
2021/07/27 05:47:02;;;;;;;24.02;13.13;;;17.10;99.90;;;;;;6303519;22;20083;-64
2021/07/27 05:49:28;;;;;;;18.80;12.27;;;17.10;99.90;;;;;;6305659;22;20011;-64
2021/07/27 05:51:55;;;;;;;28.65;13.63;;;17.20;99.90;;;;;;6305421;22;19999;-64
2021/07/27 05:54:21;;;;;;;22.92;12.95;;;17.20;99.90;;;;;;6305384;22;20423;-63
2021/07/27 05:56:51;;;;;;;18.42;12.35;;;17.30;99.90;;;;;;6304666;22;20002;-64
2021/07/27 05:59:17;;;;;;;25.70;13.63;;;17.40;99.90;;;;;;6305269;22;20003;-65
2021/07/27 06:01:43;;;;;;;18.67;13.05;;;17.40;99.90;;;;;;6304877;22;20121;-63
2021/07/27 06:04:09;;;;;;;26.73;12.85;;;17.50;99.90;;;;;;6305427;22;20006;-62
2021/07/27 06:06:35;;;;;;;25.77;13.63;;;17.50;99.90;;;;;;6305261;22;20017;-65
2021/07/27 06:09:03;;;;;;;21.02;12.95;;;17.60;99.90;;;;;;6305392;22;20037;-65
2021/07/27 06:11:30;;;;;;;19.90;12.63;;;17.70;99.90;;;;;;6305242;22;20060;-65
2021/07/27 06:13:56;;;;;;;20.55;12.80;;;17.80;99.90;;;;;;6305151;22;20058;-64
2021/07/27 06:16:22;;;;;;;23.20;12.80;;;17.90;99.90;;;;;;6304877;22;19992;-65
2021/07/27 06:18:47;;;;;;;18.02;11.77;;;18.00;99.90;;;;;;6305174;22;20070;-64
2021/07/27 06:21:13;;;;;;;21.67;13.27;;;18.00;99.90;;;;;;6304590;22;20370;-65
2021/07/27 06:23:39;;;;;;;23.65;11.82;;;18.10;99.90;;;;;;6304857;22;20082;-66
2021/07/27 06:26:05;;;;;;;20.45;12.50;;;18.20;99.90;;;;;;6304641;22;20010;-64
2021/07/27 06:28:31;;;;;;;26.38;12.20;;;18.20;99.90;;;;;;6305087;22;20000;-64
2021/07/27 06:30:56;;;;;;;22.15;12.90;;;18.20;99.90;;;;;;6304454;22;20049;-63
2021/07/27 06:33:22;;;;;;;20.33;13.32;;;18.30;99.90;;;;;;6304836;22;20006;-64
2021/07/27 06:35:47;;;;;;;16.90;11.95;;;18.30;99.90;;;;;;6304350;22;20003;-65
2021/07/27 06:38:13;;;;;;;15.25;11.98;;;18.30;99.90;;;;;;6304980;22;20007;-65
2021/07/27 06:40:39;;;;;;;19.10;12.30;;;18.40;99.90;;;;;;6304898;22;20335;-63
2021/07/27 06:43:05;;;;;;;23.92;12.63;;;18.40;99.90;;;;;;6304676;22;20086;-63
2021/07/27 06:45:30;;;;;;;23.83;13.38;;;18.50;99.90;;;;;;6304111;22;19999;-64
2021/07/27 06:47:56;;;;;;;19.27;12.45;;;18.50;99.90;;;;;;6305005;22;20007;-66
2021/07/27 06:50:21;;;;;;;28.38;14.00;;;18.60;99.90;;;;;;6304607;22;20056;-65
2021/07/27 06:52:47;;;;;;;22.15;12.90;;;18.50;99.90;;;;;;6304287;22;20078;-66
2021/07/27 06:55:12;;;;;;;22.02;11.82;;;18.60;99.90;;;;;;6304845;22;19999;-67
2021/07/27 06:57:38;;;;;;;21.58;12.80;;;18.50;99.90;;;;;;6304756;22;20003;-65
2021/07/27 07:00:07;;;;;;;21.45;12.13;;;18.60;99.90;;;;;;6277527;22;20074;-64
2021/07/27 07:02:34;;;;;;;21.10;11.63;;;18.60;99.90;;;;;;6304045;22;20316;-64
2021/07/27 07:04:59;;;;;;;15.45;11.25;;;18.60;99.90;;;;;;6302818;22;20050;-65
2021/07/27 07:07:25;;;;;;;21.20;12.95;;;18.70;99.90;;;;;;6304081;22;19999;-64
2021/07/27 07:09:51;;;;;;;19.65;13.07;;;18.80;99.90;;;;;;6302938;22;20007;-64
2021/07/27 07:12:16;;;;;;;19.60;10.95;;;18.70;99.90;;;;;;6303382;22;20087;-65
2021/07/27 07:14:42;;;;;;;20.60;11.35;;;18.80;99.90;;;;;;6303993;22;19999;-65
2021/07/27 07:17:10;;;;;;;20.70;11.80;;;18.80;99.90;;;;;;6302863;22;20006;-66
2021/07/27 07:19:35;;;;;;;24.08;13.20;;;18.80;99.90;;;;;;6303842;22;19999;-63
2021/07/27 07:22:01;;;;;;;19.08;10.43;;;18.80;99.90;;;;;;6304303;22;20185;-65
2021/07/27 07:24:26;;;;;;;17.77;11.40;;;18.90;99.90;;;;;;6304546;22;20003;-65
2021/07/27 07:26:52;;;;;;;21.63;10.40;;;19.00;99.90;;;;;;6303327;22;20072;-66
2021/07/27 07:29:18;;;;;;;20.38;9.13;;;19.10;99.90;;;;;;6303905;22;19999;-65
2021/07/27 07:31:43;;;;;;;14.32;9.65;;;19.10;99.90;;;;;;6303861;22;20004;-65
2021/07/27 07:34:09;;;;;;;21.95;10.45;;;19.20;99.90;;;;;;6303807;22;19999;-66
2021/07/27 07:36:34;;;;;;;18.30;10.48;;;19.30;99.90;;;;;;6303891;22;20084;-66
2021/07/27 07:39:00;;;;;;;17.27;11.40;;;19.50;99.90;;;;;;6303816;22;20016;-65
2021/07/27 07:41:27;;;;;;;16.00;9.45;;;19.50;99.90;;;;;;6303776;22;20006;-65
2021/07/27 07:43:53;;;;;;;12.80;9.15;;;19.60;99.90;;;;;;6301356;22;20060;-66
2021/07/27 07:46:27;;;;;;;14.70;9.68;;;19.50;99.90;;;;;;6303448;22;20003;-66
2021/07/27 07:48:56;;;;;;;13.10;9.82;;;19.50;99.90;;;;;;6276734;22;20007;-66
2021/07/27 07:51:26;;;;;;;21.58;11.35;;;19.60;99.90;;;;;;6302901;22;20048;-65
2021/07/27 07:53:51;;;;;;;14.38;10.27;;;19.60;99.90;;;;;;6274290;22;20026;-65
2021/07/27 07:56:17;;;;;;;17.40;10.35;;;19.50;99.90;;;;;;6300381;22;20438;-64
2021/07/27 07:58:44;;;;;;;15.98;10.27;;;19.60;99.90;;;;;;6301849;22;20033;-65
2021/07/27 08:01:10;;;;;;;15.65;9.90;;;19.70;99.90;;;;;;6303589;22;20014;-65
2021/07/27 08:03:35;;;;;;;17.67;9.88;;;19.80;99.90;;;;;;6304324;22;20003;-64
2021/07/27 08:06:01;;;;;;;17.50;10.13;;;19.90;99.90;;;;;;6306151;22;20057;-65
2021/07/27 08:08:27;;;;;;;24.80;11.13;;;20.00;99.90;;;;;;6305253;22;20011;-65
2021/07/27 08:10:52;;;;;;;19.08;9.57;;;20.10;99.90;;;;;;6304908;22;20031;-65
2021/07/27 08:13:18;;;;;;;15.95;10.20;;;20.10;99.90;;;;;;6303748;22;20156;-63
2021/07/27 08:15:45;;;;;;;20.27;10.82;;;20.20;99.90;;;;;;6276462;22;20327;-64
2021/07/27 08:18:11;;;;;;;21.23;9.75;;;20.30;99.90;;;;;;6304613;22;20003;-60
2021/07/27 08:20:37;;;;;;;15.40;10.35;;;20.30;99.90;;;;;;6304946;22;20090;-60
2021/07/27 08:23:04;;;;;;;16.17;10.63;;;20.40;99.90;;;;;;6305438;22;20003;-62
2021/07/27 08:25:30;;;;;;;16.83;10.43;;;20.40;99.90;;;;;;6278920;22;20010;-62
2021/07/27 08:27:56;;;;;;;18.30;10.73;;;20.40;99.90;;;;;;6304784;22;20003;-63
2021/07/27 08:30:22;;;;;;;13.38;9.98;;;20.50;99.90;;;;;;6305522;22;20431;-60
2021/07/27 08:32:50;;;;;;;17.27;11.13;;;20.50;99.90;;;;;;6305805;22;19999;-60
2021/07/27 08:35:17;;;;;;;16.77;11.20;;;20.50;99.90;;;;;;6305077;22;20438;-64
2021/07/27 08:37:43;;;;;;;20.00;11.68;;;20.60;99.90;;;;;;6278375;22;20011;-64
2021/07/27 08:40:09;;;;;;;18.38;11.55;;;20.70;99.90;;;;;;6304820;22;20014;-63
2021/07/27 08:42:37;;;;;;;23.40;12.68;;;20.80;99.90;;;;;;6305539;22;20003;-62
2021/07/27 08:45:04;;;;;;;16.25;11.00;;;20.90;99.90;;;;;;6277649;22;20003;-61
2021/07/27 08:47:32;;;;;;;18.63;11.02;;;21.00;99.90;;;;;;6305007;22;20027;-61
2021/07/27 08:50:00;;;;;;;18.00;10.45;;;21.10;99.90;;;;;;6305614;22;20003;-63
2021/07/27 08:52:26;;;;;;;17.23;11.32;;;21.20;99.90;;;;;;6305251;22;20002;-60
2021/07/27 08:54:53;;;;;;;24.60;12.45;;;21.30;99.90;;;;;;6304677;22;19999;-61
2021/07/27 08:57:19;;;;;;;16.65;11.43;;;21.40;99.90;;;;;;6305213;22;20457;-64
2021/07/27 08:59:45;;;;;;;20.95;12.40;;;21.60;99.90;;;;;;6303888;22;20332;-62
2021/07/27 09:02:10;;;;;;;20.00;11.73;;;21.70;99.90;;;;;;6304505;22;20037;-62
2021/07/27 09:04:36;;;;;;;16.50;11.73;;;21.70;99.90;;;;;;6303999;22;20019;-63
2021/07/27 09:07:06;;;;;;;19.90;12.70;;;21.80;99.90;;;;;;6301563;22;20006;-62
2021/07/27 09:09:36;;;;;;;23.10;12.05;;;22.00;99.90;;;;;;6304762;22;20136;-62
2021/07/27 09:12:09;;;;;;;18.45;11.68;;;22.10;99.90;;;;;;6303342;22;20011;-61
2021/07/27 09:14:44;;;;;;;22.00;13.07;;;22.30;99.90;;;;;;6304332;22;20137;-62
2021/07/27 09:17:10;;;;;;;17.90;11.00;;;22.40;99.90;;;;;;6303650;22;19996;-62
2021/07/27 09:19:42;;;;;;;18.85;11.63;;;22.40;99.90;;;;;;6304804;22;20083;-61
2021/07/27 09:22:08;;;;;;;22.70;12.80;;;22.40;99.90;;;;;;6304892;22;20000;-62
2021/07/27 09:24:34;;;;;;;23.77;12.30;;;22.30;99.90;;;;;;6277389;22;20089;-61
2021/07/27 09:27:01;;;;;;;16.73;12.85;;;22.30;99.90;;;;;;6301239;22;20013;-60
2021/07/27 09:29:29;;;;;;;17.17;12.15;;;22.10;99.90;;;;;;6299486;22;20338;-61
2021/07/27 09:31:57;;;;;;;17.42;11.55;;;22.10;99.90;;;;;;6299767;22;20007;-64
2021/07/27 09:34:24;;;;;;;16.95;10.40;;;22.10;99.90;;;;;;6272122;22;20134;-63
2021/07/27 09:37:07;;;;;;;12.27;9.15;;;22.20;99.90;;;;;;6299127;22;20003;-60
2021/07/27 09:39:34;;;;;;;11.55;9.50;;;22.30;99.90;;;;;;6299998;22;20007;-64
2021/07/27 09:42:06;;;;;;;18.05;12.25;;;22.40;99.90;;;;;;6299899;22;20003;-61
2021/07/27 09:44:32;;;;;;;15.57;11.23;;;22.40;99.90;;;;;;6299965;22;20355;-61
2021/07/27 09:46:59;;;;;;;23.77;12.75;;;22.40;99.90;;;;;;6272537;22;20007;-62
2021/07/27 09:49:26;;;;;;;15.13;11.32;;;22.40;99.90;;;;;;6300904;22;20003;-60
2021/07/27 09:51:53;;;;;;;21.65;12.30;;;22.30;99.90;;;;;;6300221;22;19995;-63
2021/07/27 09:54:21;;;;;;;15.80;10.73;;;22.20;99.90;;;;;;6300695;22;20007;-63
2021/07/27 09:56:47;;;;;;;15.52;11.23;;;22.10;99.90;;;;;;6300333;22;20000;-62
2021/07/27 09:59:16;;;;;;;14.68;10.63;;;22.20;99.90;;;;;;6300689;22;20003;-60
2021/07/27 10:01:59;;;;;;;14.93;10.43;;;22.20;99.90;;;;;;6300549;22;20496;-64
2021/07/27 10:04:36;;;;;;;16.23;10.18;;;22.40;99.90;;;;;;6300493;22;20026;-61
2021/07/27 10:07:04;;;;;;;15.88;9.88;;;22.60;99.90;;;;;;6300253;22;20011;-64
2021/07/27 10:09:34;;;;;;;19.15;8.73;;;22.70;99.90;;;;;;6301100;22;20459;-64
2021/07/27 10:12:07;;;;;;;15.90;10.23;;;22.80;99.90;;;;;;6301008;22;20079;-60
2021/07/27 10:14:46;;;;;;;12.77;9.70;;;22.60;99.90;;;;;;6300215;22;20006;-63
2021/07/27 10:17:14;;;;;;;12.05;8.80;;;22.70;99.90;;;;;;6300935;22;20030;-59
2021/07/27 10:19:41;;;;;;;16.00;9.40;;;22.70;99.90;;;;;;6300784;22;20003;-61
2021/07/27 10:22:11;;;;;;;15.88;9.00;;;22.90;99.90;;;;;;6300191;22;20006;-63
2021/07/27 10:24:42;;;;;;;16.15;9.38;;;23.00;99.90;;;;;;6300398;22;20003;-62
2021/07/27 10:27:16;;;;;;;13.20;8.55;;;23.00;99.90;;;;;;6298269;22;20007;-63
2021/07/27 10:29:42;;;;;;;21.33;9.85;;;23.20;99.90;;;;;;6272376;22;20342;-63
2021/07/27 10:32:18;;;;;;;14.70;8.73;;;23.30;99.90;;;;;;6298800;22;20082;-63
2021/07/27 10:34:44;;;;;;;15.60;9.93;;;23.20;99.90;;;;;;6296000;22;20406;-64
2021/07/27 10:37:17;;;;;;;14.75;9.27;;;23.10;99.90;;;;;;6294698;22;20360;-63
2021/07/27 10:39:48;;;;;;;19.02;9.95;;;23.10;99.90;;;;;;6295813;22;20003;-61
2021/07/27 10:42:14;;;;;;;15.30;8.35;;;23.10;99.90;;;;;;6296239;22;20012;-64
2021/07/27 10:44:40;;;;;;;13.07;7.72;;;23.20;99.90;;;;;;6295110;22;20022;-66
2021/07/27 10:47:05;;;;;;;16.17;8.43;;;23.40;99.90;;;;;;6295290;22;20003;-63
2021/07/27 10:49:31;;;;;;;14.18;8.05;;;23.80;99.90;;;;;;6295584;22;20078;-59
2021/07/27 10:52:02;;;;;;;13.50;7.97;;;24.10;99.90;;;;;;6294294;22;20060;-62
2021/07/27 10:54:31;;;;;;;12.15;7.47;;;24.60;99.90;;;;;;6298919;22;20431;-58
2021/07/27 10:57:02;;;;;;;13.73;7.38;;;25.10;99.90;;;;;;6298181;22;20002;-61
2021/07/27 10:59:32;;;;;;;10.43;7.75;;;25.50;99.90;;;;;;6298136;22;20007;-62
2021/07/27 11:02:09;;;;;;;11.65;6.85;;;25.50;99.90;;;;;;6298446;22;20012;-61
2021/07/27 11:04:34;;;;;;;15.10;8.07;;;25.40;99.90;;;;;;6297765;22;20506;-63
2021/07/27 11:07:11;;;;;;;12.23;7.15;;;25.50;99.90;;;;;;6297324;22;20004;-63
2021/07/27 11:09:57;;;;;;;10.50;6.50;;;25.70;99.90;;;;;;6297318;22;20097;-63
2021/07/27 11:12:30;;;;;;;9.13;7.05;;;25.80;99.90;;;;;;6298699;22;19999;-62
2021/07/27 11:15:23;;;;;;;10.77;7.27;;;25.50;99.90;;;;;;6297747;22;20149;-63
2021/07/27 11:17:59;;;;;;;10.00;6.43;;;25.40;99.90;;;;;;6294722;22;20068;-63
2021/07/27 11:20:33;;;;;;;7.28;6.07;;;25.20;99.90;;;;;;6295785;22;20007;-62
2021/07/27 11:23:07;;;;;;;12.48;6.68;;;25.00;99.90;;;;;;6296768;22;20004;-62
2021/07/27 11:25:32;;;;;;;11.03;7.40;;;25.10;99.90;;;;;;6296044;22;20101;-61
2021/07/27 11:28:09;;;;;;;12.25;7.28;;;25.60;99.90;;;;;;6295803;22;20074;-63
2021/07/27 11:30:36;;;;;;;12.07;6.88;;;25.70;99.90;;;;;;6296580;22;20000;-63
2021/07/27 11:33:09;;;;;;;10.68;7.40;;;25.70;99.90;;;;;;6298166;22;20048;-62
2021/07/27 11:35:46;;;;;;;13.18;6.78;;;25.90;99.90;;;;;;6297547;22;20009;-61
2021/07/27 11:38:20;;;;;;;13.13;6.70;;;26.10;99.90;;;;;;6298633;22;20018;-61
2021/07/27 11:40:48;;;;;;;11.95;7.75;;;26.00;99.90;;;;;;6302380;22;20082;-62
2021/07/27 11:43:13;;;;;;;14.25;7.00;;;25.80;99.90;;;;;;6298833;22;20010;-62
2021/07/27 11:45:44;;;;;;;12.02;7.03;;;25.80;99.90;;;;;;6298839;22;20007;-63
2021/07/27 11:48:11;;;;;;;10.60;6.82;;;26.20;99.90;;;;;;6300753;22;20006;-62
2021/07/27 11:50:39;;;;;;;9.70;7.15;;;26.40;99.90;;;;;;6297995;22;20047;-62
2021/07/27 11:53:22;;;;;;;10.07;7.13;;;26.30;99.90;;;;;;6300161;22;19996;-59
2021/07/27 11:55:48;;;;;;;9.57;6.43;;;25.90;99.90;;;;;;6298760;22;20009;-61
2021/07/27 11:58:25;;;;;;;13.05;6.55;;;25.70;99.90;;;;;;6299177;22;20173;-61
2021/07/27 12:00:59;;;;;;;10.73;7.20;;;25.40;99.90;;;;;;6299470;22;20410;-61
2021/07/27 12:03:25;;;;;;;10.23;6.68;;;25.10;99.90;;;;;;6297597;22;20015;-62
2021/07/27 12:05:53;;;;;;;10.57;7.07;;;25.00;99.90;;;;;;6296079;22;20018;-62
2021/07/27 12:08:19;;;;;;;13.35;7.03;;;25.00;99.90;;;;;;6294979;22;20174;-62
2021/07/27 12:10:44;;;;;;;12.55;7.03;;;25.10;99.90;;;;;;6297443;22;20045;-62
2021/07/27 12:13:10;;;;;;;12.32;7.40;;;25.20;99.90;;;;;;6296761;22;20014;-63
2021/07/27 12:15:36;;;;;;;8.70;6.70;;;25.00;99.90;;;;;;6294630;22;20682;-62
2021/07/27 12:18:02;;;;;;;9.90;6.32;;;25.00;99.90;;;;;;6268173;22;20057;-61
2021/07/27 12:20:27;;;;;;;23.38;7.57;;;25.20;99.90;;;;;;6297530;22;20007;-58
2021/07/27 12:22:53;;;;;;;7.68;6.10;;;25.10;99.90;;;;;;6295534;22;20007;-62
2021/07/27 12:25:19;;;;;;;10.35;6.55;;;25.00;99.90;;;;;;6296541;22;20008;-61
2021/07/27 12:27:45;;;;;;;13.52;6.43;;;25.20;99.90;;;;;;6297476;22;20296;-59
2021/07/27 12:30:11;;;;;;;10.00;6.80;;;25.20;99.90;;;;;;6295573;22;19996;-59
2021/07/27 12:32:37;;;;;;;13.05;6.75;;;25.50;99.90;;;;;;6298720;22;19999;-62
2021/07/27 12:35:04;;;;;;;9.27;6.57;;;25.70;99.90;;;;;;6296685;22;20052;-58
2021/07/27 12:37:29;;;;;;;9.27;6.53;;;25.70;99.90;;;;;;6296723;22;20003;-58
2021/07/27 12:39:55;;;;;;;12.77;7.18;;;25.70;99.90;;;;;;6299794;22;20003;-62
2021/07/27 12:42:21;;;;;;;11.13;6.57;;;25.60;99.90;;;;;;6300067;22;19999;-61
2021/07/27 12:44:47;;;;;;;15.07;6.68;;;25.60;99.90;;;;;;6300400;22;20004;-61
2021/07/27 12:47:12;;;;;;;10.32;6.90;;;25.60;99.90;;;;;;6296502;22;20041;-57
2021/07/27 12:49:38;;;;;;;13.60;6.55;;;25.40;99.90;;;;;;6295881;22;20015;-62